Time;durP1;ratioP1;P1;durP2;ratioP2;P2;SDS_P1;SDS_P2;PMS_P1;PMS_P2;Temp;Humidity;BMP_temperature;BMP_pressure;BME280_temperature;BME280_humidity;BME280_pressure;Samples;Min_cycle;Max_cycle;Signal;HPM_P1;HPM_P2
2023/06/24 00:01:15;;;;;;;;;;;;;;;20.05;73.32;102354.53;5012736;28;19925;-76
2023/06/24 00:03:40;;;;;;;;;;;;;;;20.03;71.47;102358.22;4973018;28;19945;-76
2023/06/24 00:06:06;;;;;;;;;;;;;;;19.97;73.25;102359.34;5005185;28;19968;-76
2023/06/24 00:08:33;;;;;;;;;;;;;;;19.89;71.50;102356.94;5012368;28;20012;-76
2023/06/24 00:10:59;;;;;;;;;;;;;;;19.85;70.75;102366.03;5011355;28;19980;-76
2023/06/24 00:13:24;;;;;;;;;;;;;;;19.82;70.08;102366.16;5012185;28;19930;-76
2023/06/24 00:15:49;;;;;;;;;;;;;;;19.77;70.31;102365.44;5012402;28;19931;-76
2023/06/24 00:18:15;;;;;;;;;;;;;;;19.71;70.69;102363.88;5012188;28;19928;-76
2023/06/24 00:20:43;;;;;;;;;;;;;;;19.63;70.61;102363.19;4976041;28;19932;-76
2023/06/24 00:23:08;;;;;;;;;;;;;;;19.60;70.17;102359.75;5009535;28;20366;-76
2023/06/24 00:25:33;;;;;;;;;;;;;;;19.51;69.60;102355.56;5012369;28;20025;-76
2023/06/24 00:27:59;;;;;;;;;;;;;;;19.42;69.33;102375.59;4994062;28;19929;-76
2023/06/24 00:30:25;;;;;;;;;;;;;;;19.32;69.69;102374.16;5003995;28;19918;-76
2023/06/24 00:32:51;;;;;;;;;;;;;;;19.26;69.58;102374.34;4991958;28;20014;-76
2023/06/24 00:35:17;;;;;;;;;;;;;;;19.19;69.76;102379.06;4966970;28;20386;-76
2023/06/24 00:37:45;;;;;;;;;;;;;;;19.16;69.77;102381.84;4993867;28;20309;-76
2023/06/24 00:40:11;;;;;;;;;;;;;;;19.12;69.44;102372.16;5012027;28;19929;-76
2023/06/24 00:42:37;;;;;;;;;;;;;;;19.09;69.73;102377.63;5011868;28;19988;-76
2023/06/24 00:45:04;;;;;;;;;;;;;;;19.05;68.85;102379.53;5011744;28;19922;-76
2023/06/24 00:47:31;;;;;;;;;;;;;;;19.02;68.35;102376.06;5011737;28;19928;-76
2023/06/24 00:49:56;;;;;;;;;;;;;;;18.98;67.96;102372.59;4977622;28;20328;-76
2023/06/24 00:52:22;;;;;;;;;;;;;;;18.97;67.74;102369.97;4977702;28;19921;-76
2023/06/24 00:54:47;;;;;;;;;;;;;;;18.92;67.37;102372.81;4993898;28;20353;-76
2023/06/24 00:57:13;;;;;;;;;;;;;;;18.88;67.11;102379.19;4977583;28;19921;-76
2023/06/24 00:59:40;;;;;;;;;;;;;;;18.81;66.66;102372.25;5011574;28;20054;-76
2023/06/24 01:02:05;;;;;;;;;;;;;;;18.76;66.45;102364.34;5011300;28;19940;-76
2023/06/24 01:04:33;;;;;;;;;;;;;;;18.70;66.50;102367.22;5011570;28;19926;-76
2023/06/24 01:07:00;;;;;;;;;;;;;;;18.66;66.32;102369.09;4977403;28;19925;-76
2023/06/24 01:09:25;;;;;;;;;;;;;;;18.64;66.88;102367.41;4993703;28;19933;-76
2023/06/24 01:11:51;;;;;;;;;;;;;;;18.55;67.14;102355.16;5011452;28;19929;-76
2023/06/24 01:14:19;;;;;;;;;;;;;;;18.43;66.58;102355.53;4993646;28;19917;-76
2023/06/24 01:16:54;;;;;;;;;;;;;;;18.40;67.84;102366.38;4994113;28;20346;-76
2023/06/24 01:19:42;;;;;;;;;;;;;;;18.33;68.14;102359.44;4997855;28;19939;-76
2023/06/24 01:22:17;;;;;;;;;;;;;;;18.26;67.85;102356.03;4991737;28;19928;-76
2023/06/24 01:25:01;;;;;;;;;;;;;;;18.22;68.04;102362.41;4999405;28;19925;-76
2023/06/24 01:27:45;;;;;;;;;;;;;;;18.23;68.16;102353.47;4993556;28;19918;-76
2023/06/24 01:30:11;;;;;;;;;;;;;;;18.17;67.81;102346.44;4993851;28;19971;-76
2023/06/24 01:32:44;;;;;;;;;;;;;;;18.10;67.45;102355.63;4993968;28;19921;-76
2023/06/24 01:35:17;;;;;;;;;;;;;;;18.01;68.12;102356.75;4993853;28;19918;-76
2023/06/24 01:37:47;;;;;;;;;;;;;;;17.94;68.54;102347.13;4993542;28;19980;-76
2023/06/24 01:40:12;;;;;;;;;;;;;;;17.91;68.94;102349.03;5011496;28;19971;-76
2023/06/24 01:42:42;;;;;;;;;;;;;;;17.86;69.33;102350.97;4993330;28;19929;-76
2023/06/24 01:45:12;;;;;;;;;;;;;;;17.79;68.67;102343.06;4993784;28;19921;-76
2023/06/24 01:47:38;;;;;;;;;;;;;;;17.71;69.85;102344.22;5011247;28;20414;-76
2023/06/24 01:50:03;;;;;;;;;;;;;;;17.58;69.44;102338.28;4987601;28;20256;-76
2023/06/24 01:52:30;;;;;;;;;;;;;;;17.51;69.35;102344.75;4985975;28;19979;-77
2023/06/24 01:54:55;;;;;;;;;;;;;;;17.46;69.36;102350.22;4993860;28;19972;-77
2023/06/24 01:57:23;;;;;;;;;;;;;;;17.40;70.28;102348.56;4993535;28;20273;-77
2023/06/24 01:59:51;;;;;;;;;;;;;;;17.33;70.14;102344.31;4993146;28;19930;-77
2023/06/24 02:02:20;;;;;;;;;;;;;;;17.30;71.07;102343.50;5011327;28;20206;-77
2023/06/24 02:04:45;;;;;;;;;;;;;;;17.27;70.62;102347.16;5014966;28;19917;-77
2023/06/24 02:07:12;;;;;;;;;;;;;;;17.26;70.89;102340.06;5015034;28;19918;-77
2023/06/24 02:09:38;;;;;;;;;;;;;;;17.30;70.43;102339.03;4997189;28;19933;-77
2023/06/24 02:12:04;;;;;;;;;;;;;;;17.35;70.17;102336.25;4997033;28;20300;-77
2023/06/24 02:14:31;;;;;;;;;;;;;;;17.32;70.04;102339.88;4981060;28;19932;-77
2023/06/24 02:16:59;;;;;;;;;;;;;;;17.25;69.76;102342.75;5014587;28;19976;-77
2023/06/24 02:19:27;;;;;;;;;;;;;;;17.17;69.60;102335.81;5001425;28;19924;-77
2023/06/24 02:21:59;;;;;;;;;;;;;;;17.11;69.53;102340.41;5003183;28;20038;-77
2023/06/24 02:24:26;;;;;;;;;;;;;;;17.02;69.86;102338.88;4996286;28;19928;-77
2023/06/24 02:26:52;;;;;;;;;;;;;;;16.94;69.86;102343.53;4996534;28;20023;-77
2023/06/24 02:29:18;;;;;;;;;;;;;;;16.88;70.13;102346.34;5014345;28;19921;-77
2023/06/24 02:31:44;;;;;;;;;;;;;;;16.82;70.32;102344.72;5014408;28;19921;-77
2023/06/24 02:34:09;;;;;;;;;;;;;;;16.77;70.20;102346.59;5012811;28;19933;-77
2023/06/24 02:36:35;;;;;;;;;;;;;;;16.74;70.09;102343.97;4996416;28;20035;-77
2023/06/24 02:39:01;;;;;;;;;;;;;;;16.69;70.12;102337.84;4996354;28;19979;-77
2023/06/24 02:41:27;;;;;;;;;;;;;;;16.65;70.98;102344.19;4996275;28;19918;-77
2023/06/24 02:43:52;;;;;;;;;;;;;;;16.63;70.87;102340.66;5014041;28;19925;-77
2023/06/24 02:46:18;;;;;;;;;;;;;;;16.65;72.39;102344.19;4979929;28;20024;-77
2023/06/24 02:48:45;;;;;;;;;;;;;;;16.61;71.87;102337.16;4993000;28;19918;-77
2023/06/24 02:51:11;;;;;;;;;;;;;;;16.55;71.50;102333.69;5009682;28;19918;-77
2023/06/24 02:53:38;;;;;;;;;;;;;;;16.48;71.55;102333.88;5012397;28;19972;-77
2023/06/24 02:56:04;;;;;;;;;;;;;;;16.43;71.69;102341.13;4979749;28;19976;-77
2023/06/24 02:58:31;;;;;;;;;;;;;;;16.36;71.95;102337.69;4998470;28;19921;-77
2023/06/24 03:01:03;;;;;;;;;;;;;;;16.36;74.65;102339.50;4996040;28;20283;-77
2023/06/24 03:03:30;;;;;;;;;;;;;;;16.34;73.27;102336.84;4979727;28;20012;-77
2023/06/24 03:05:57;;;;;;;;;;;;;;;16.36;73.20;102342.19;5012575;28;19921;-77
2023/06/24 03:08:24;;;;;;;;;;;;;;;16.39;73.23;102342.97;4979638;28;20013;-77
2023/06/24 03:10:51;;;;;;;;;;;;;;;16.41;73.23;102342.97;4995914;28;20311;-77
2023/06/24 03:13:20;;;;;;;;;;;;;;;16.37;74.54;102351.94;4964056;28;19933;-77
2023/06/24 03:15:51;;;;;;;;;;;;;;;16.28;73.31;102356.59;5011873;28;19918;-77
2023/06/24 03:18:17;;;;;;;;;;;;;;;16.24;71.15;102357.56;4995773;28;20291;-77
2023/06/24 03:20:43;;;;;;;;;;;;;;;16.26;73.95;102358.41;4993533;28;20120;-77
2023/06/24 03:23:12;;;;;;;;;;;;;;;16.29;74.30;102349.44;4979802;28;19929;-77
2023/06/24 03:25:38;;;;;;;;;;;;;;;16.30;73.61;102348.53;5011661;28;19925;-77
2023/06/24 03:28:07;;;;;;;;;;;;;;;16.26;73.83;102337.03;5005880;28;19921;-77
2023/06/24 03:30:35;;;;;;;;;;;;;;;16.20;74.03;102331.81;5011557;28;20394;-77
2023/06/24 03:33:01;;;;;;;;;;;;;;;16.13;73.88;102339.09;4995316;28;20000;-77
2023/06/24 03:35:28;;;;;;;;;;;;;;;16.12;72.94;102349.78;4995426;28;20360;-77
2023/06/24 03:37:59;;;;;;;;;;;;;;;16.18;73.56;102348.81;5012914;28;19917;-77
2023/06/24 03:40:24;;;;;;;;;;;;;;;16.20;74.59;102347.00;5008054;28;19922;-77
2023/06/24 03:42:50;;;;;;;;;;;;;;;16.19;74.29;102350.56;4978953;28;19925;-78
2023/06/24 03:45:15;;;;;;;;;;;;;;;16.19;74.52;102358.56;4995604;28;20040;-77
2023/06/24 03:47:43;;;;;;;;;;;;;;;16.21;74.49;102351.41;4994964;28;19924;-78
2023/06/24 03:50:08;;;;;;;;;;;;;;;16.23;74.37;102352.25;4979431;28;19922;-78
2023/06/24 03:52:34;;;;;;;;;;;;;;;16.23;73.94;102353.13;4995032;28;19969;-78
2023/06/24 03:55:01;;;;;;;;;;;;;;;16.18;74.42;102355.03;4978852;28;20025;-78
2023/06/24 03:57:26;;;;;;;;;;;;;;;16.15;74.55;102351.53;4995528;28;20044;-78
2023/06/24 03:59:52;;;;;;;;;;;;;;;16.08;74.21;102353.47;4978819;28;19968;-78
2023/06/24 04:02:20;;;;;;;;;;;;;;;16.03;75.07;102355.34;5011719;28;20385;-78
2023/06/24 04:04:45;;;;;;;;;;;;;;;15.96;74.81;102364.41;5012180;28;19945;-78
2023/06/24 04:07:11;;;;;;;;;;;;;;;15.94;75.31;102360.88;4995243;28;19937;-78
2023/06/24 04:09:38;;;;;;;;;;;;;;;15.94;74.86;102361.75;4978601;28;19925;-78
2023/06/24 04:12:03;;;;;;;;;;;;;;;15.95;75.26;102358.19;5011281;28;19918;-79
2023/06/24 04:14:33;;;;;;;;;;;;;;;15.95;74.95;102355.50;4994677;28;19936;-79
2023/06/24 04:16:58;;;;;;;;;;;;;;;15.95;75.50;102358.19;5005868;28;19918;-78
2023/06/24 04:19:23;;;;;;;;;;;;;;;15.96;76.02;102359.94;4995096;28;19922;-79
2023/06/24 04:21:49;;;;;;;;;;;;;;;15.97;76.01;102359.00;4993494;28;19921;-79
2023/06/24 04:24:14;;;;;;;;;;;;;;;15.98;75.71;102355.44;4977700;28;20324;-79
2023/06/24 04:26:39;;;;;;;;;;;;;;;16.00;76.17;102356.31;5003609;28;19965;-79
2023/06/24 04:29:05;;;;;;;;;;;;;;;16.03;76.07;102364.25;4994539;28;19976;-79
2023/06/24 04:31:30;;;;;;;;;;;;;;;16.06;76.54;102358.84;5010814;28;19972;-79
2023/06/24 04:33:56;;;;;;;;;;;;;;;16.07;76.42;102360.59;4994440;28;19924;-78
2023/06/24 04:36:21;;;;;;;;;;;;;;;16.11;76.55;102356.06;5012003;28;19975;-79
2023/06/24 04:38:47;;;;;;;;;;;;;;;16.16;76.62;102359.53;5010437;28;19952;-78
2023/06/24 04:41:13;;;;;;;;;;;;;;;16.19;76.99;102356.78;5011774;28;19922;-79
2023/06/24 04:43:38;;;;;;;;;;;;;;;16.21;77.92;102354.97;4994176;28;19971;-79
2023/06/24 04:46:03;;;;;;;;;;;;;;;16.30;77.09;102369.94;5012048;28;19922;-79
2023/06/24 04:48:29;;;;;;;;;;;;;;;16.35;76.54;102365.38;5010434;28;19967;-79
2023/06/24 04:50:54;;;;;;;;;;;;;;;16.44;77.87;102372.28;4978039;28;19928;-79
2023/06/24 04:53:20;;;;;;;;;;;;;;;16.53;76.97;102369.41;5012100;28;20096;-81
2023/06/24 04:55:45;;;;;;;;;;;;;;;16.60;77.79;102367.50;5010868;28;19990;-79
2023/06/24 04:58:11;;;;;;;;;;;;;;;16.68;77.38;102370.88;5011767;28;19945;-81
2023/06/24 05:00:36;;;;;;;;;;;;;;;16.81;79.28;102374.16;5010085;28;19929;-80
2023/06/24 05:03:02;;;;;;;;;;;;;;;16.92;77.42;102375.69;5011688;28;19926;-81
2023/06/24 05:05:27;;;;;;;;;;;;;;;17.01;77.96;102373.69;4977630;28;19945;-81
2023/06/24 05:07:52;;;;;;;;;;;;;;;17.12;77.52;102363.59;5011753;28;20008;-81
2023/06/24 05:10:18;;;;;;;;;;;;;;;17.23;76.09;102366.00;5011533;28;19979;-81
2023/06/24 05:12:43;;;;;;;;;;;;;;;17.30;76.17;102371.16;5010000;28;20352;-81
2023/06/24 05:15:09;;;;;;;;;;;;;;;17.36;76.37;102360.31;5011104;28;19965;-80
2023/06/24 05:17:34;;;;;;;;;;;;;;;17.44;77.26;102367.25;4977417;28;19928;-81
2023/06/24 05:20:00;;;;;;;;;;;;;;;17.51;76.83;102364.38;4961183;28;19928;-81
2023/06/24 05:22:25;;;;;;;;;;;;;;;17.57;75.94;102363.34;4992487;28;19921;-81
2023/06/24 05:24:50;;;;;;;;;;;;;;;17.65;76.82;102369.34;4993368;28;20092;-81
2023/06/24 05:27:17;;;;;;;;;;;;;;;17.72;74.41;102362.91;5005947;28;20023;-81
2023/06/24 05:29:43;;;;;;;;;;;;;;;17.77;75.75;102363.66;5011119;28;19970;-81
2023/06/24 05:32:08;;;;;;;;;;;;;;;17.83;76.00;102370.69;4993596;28;20391;-81
2023/06/24 05:34:34;;;;;;;;;;;;;;;17.89;75.61;102359.78;4993584;28;19928;-81
2023/06/24 05:37:00;;;;;;;;;;;;;;;17.95;76.40;102365.00;5009133;28;19960;-81
2023/06/24 05:39:25;;;;;;;;;;;;;;;18.02;75.34;102368.34;4990204;28;19968;-81
2023/06/24 05:41:51;;;;;;;;;;;;;;;18.08;76.74;102372.69;5011552;28;20024;-81
2023/06/24 05:44:18;;;;;;;;;;;;;;;18.12;75.36;102368.97;5010052;28;20028;-81
2023/06/24 05:46:43;;;;;;;;;;;;;;;18.18;74.55;102371.50;5009861;28;20248;-82
2023/06/24 05:49:09;;;;;;;;;;;;;;;18.22;75.47;102367.78;5011190;28;19928;-81
2023/06/24 05:51:34;;;;;;;;;;;;;;;18.26;74.71;102366.78;5009915;28;20316;-81
2023/06/24 05:53:59;;;;;;;;;;;;;;;18.30;75.04;102365.75;5011160;28;20484;-81
2023/06/24 05:56:26;;;;;;;;;;;;;;;18.37;74.53;102377.16;4993252;28;20036;-81
2023/06/24 05:58:51;;;;;;;;;;;;;;;18.41;73.68;102377.03;4992980;28;19914;-81
2023/06/24 06:01:16;;;;;;;;;;;;;;;18.49;74.00;102379.47;4993446;28;20004;-81
2023/06/24 06:03:42;;;;;;;;;;;;;;;18.55;73.53;102376.63;5009462;28;19925;-81
2023/06/24 06:06:07;;;;;;;;;;;;;;;18.62;74.17;102371.91;4977167;28;20059;-81
2023/06/24 06:08:33;;;;;;;;;;;;;;;18.67;74.00;102367.31;5010839;28;20039;-80
2023/06/24 06:10:59;;;;;;;;;;;;;;;18.74;74.09;102374.22;4993322;28;19988;-81
2023/06/24 06:13:24;;;;;;;;;;;;;;;18.83;73.50;102373.97;5010821;28;19936;-80
2023/06/24 06:15:50;;;;;;;;;;;;;;;18.93;73.62;102374.56;4984612;28;19922;-80
2023/06/24 06:18:15;;;;;;;;;;;;;;;19.04;73.59;102379.56;4987722;28;19926;-81
2023/06/24 06:20:41;;;;;;;;;;;;;;;19.12;72.66;102380.22;5009141;28;19930;-80
2023/06/24 06:23:06;;;;;;;;;;;;;;;19.16;72.15;102373.78;5010821;28;19929;-80
2023/06/24 06:25:32;;;;;;;;;;;;;;;19.23;71.95;102379.84;5011121;28;19922;-80
2023/06/24 06:27:58;;;;;;;;;;;;;;;19.25;71.38;102377.97;4977342;28;20329;-80
2023/06/24 06:30:23;;;;;;;;;;;;;;;19.33;71.55;102382.16;5009777;28;20340;-80
2023/06/24 06:32:48;;;;;;;;;;;;;;;19.42;71.20;102380.97;4994361;28;19976;-80
2023/06/24 06:35:14;;;;;;;;;;;;;;;19.47;70.23;102387.06;4993093;28;20214;-81
2023/06/24 06:37:39;;;;;;;;;;;;;;;19.53;70.75;102384.19;4986810;28;19926;-80
2023/06/24 06:40:05;;;;;;;;;;;;;;;19.65;68.92;102385.53;5010984;28;19921;-81
2023/06/24 06:42:30;;;;;;;;;;;;;;;19.72;67.80;102388.91;5004930;28;20286;-80
2023/06/24 06:44:56;;;;;;;;;;;;;;;19.79;67.05;102386.91;4984769;28;19940;-80
2023/06/24 06:47:22;;;;;;;;;;;;;;;19.84;67.47;102385.78;5002334;28;19930;-80
2023/06/24 06:49:48;;;;;;;;;;;;;;;19.93;66.59;102396.22;4988427;28;19919;-80
2023/06/24 06:52:13;;;;;;;;;;;;;;;19.97;65.75;102389.78;4972654;28;20313;-80
2023/06/24 06:54:39;;;;;;;;;;;;;;;20.04;64.97;102398.50;5005657;28;20309;-80
2023/06/24 06:57:04;;;;;;;;;;;;;;;20.04;65.09;102401.19;5007609;28;20395;-80
2023/06/24 06:59:30;;;;;;;;;;;;;;;20.04;64.24;102405.69;4988377;28;19921;-80
2023/06/24 07:01:58;;;;;;;;;;;;;;;20.09;64.71;102411.78;5005419;28;19925;-80
2023/06/24 07:04:23;;;;;;;;;;;;;;;20.12;64.15;102409.84;5009528;28;19921;-78
2023/06/24 07:06:49;;;;;;;;;;;;;;;20.19;65.16;102405.13;5009190;28;19928;-78
2023/06/24 07:09:15;;;;;;;;;;;;;;;20.30;63.95;102411.00;4992432;28;19921;-78
2023/06/24 07:11:43;;;;;;;;;;;;;;;20.35;64.79;102403.63;4961034;28;19921;-78
2023/06/24 07:14:09;;;;;;;;;;;;;;;20.48;64.28;102412.09;4990292;28;19929;-78
2023/06/24 07:16:34;;;;;;;;;;;;;;;20.54;64.06;102411.84;4975667;28;19918;-78
2023/06/24 07:18:59;;;;;;;;;;;;;;;20.59;63.67;102411.72;5009003;28;19932;-78
2023/06/24 07:21:25;;;;;;;;;;;;;;;20.69;63.98;102404.16;4980497;28;19924;-78
2023/06/24 07:23:50;;;;;;;;;;;;;;;20.79;62.85;102411.78;5005611;28;20048;-78
2023/06/24 07:26:15;;;;;;;;;;;;;;;20.86;60.74;102417.81;5008427;28;20015;-77
2023/06/24 07:28:41;;;;;;;;;;;;;;;20.90;60.76;102418.59;4957888;28;20321;-78
2023/06/24 07:31:06;;;;;;;;;;;;;;;21.03;60.27;102425.22;4973928;28;20017;-78
2023/06/24 07:33:32;;;;;;;;;;;;;;;21.03;59.78;102415.31;4989425;28;20011;-78
2023/06/24 07:35:57;;;;;;;;;;;;;;;21.12;59.91;102419.47;4990133;28;20275;-78
2023/06/24 07:38:22;;;;;;;;;;;;;;;21.22;59.67;102411.88;5006532;28;20309;-78
2023/06/24 07:40:48;;;;;;;;;;;;;;;21.28;60.39;102417.00;5007677;28;19917;-78
2023/06/24 07:43:13;;;;;;;;;;;;;;;21.38;60.20;102414.78;4973447;28;20024;-81
2023/06/24 07:45:39;;;;;;;;;;;;;;;21.44;60.94;102418.16;5007428;28;20352;-78
2023/06/24 07:48:04;;;;;;;;;;;;;;;21.56;59.38;102418.53;4989902;28;19929;-78
2023/06/24 07:50:31;;;;;;;;;;;;;;;21.63;59.51;102422.72;4973555;28;19974;-78
2023/06/24 07:52:56;;;;;;;;;;;;;;;21.69;58.33;102417.09;5006432;28;20411;-77
2023/06/24 07:55:21;;;;;;;;;;;;;;;21.73;58.04;102410.59;4988051;28;19929;-77
2023/06/24 07:57:47;;;;;;;;;;;;;;;21.81;57.08;102416.56;4988753;28;19925;-77
2023/06/24 08:00:13;;;;;;;;;;;;;;;21.90;58.14;102420.66;4987955;28;20380;-77
2023/06/24 08:02:38;;;;;;;;;;;;;;;22.01;58.90;102421.06;5006314;28;19922;-77
2023/06/24 08:05:04;;;;;;;;;;;;;;;22.12;58.61;102412.47;4972193;28;19928;-77
2023/06/24 08:07:30;;;;;;;;;;;;;;;22.26;57.49;102401.97;4987938;28;19921;-77
2023/06/24 08:09:58;;;;;;;;;;;;;;;22.40;57.76;102405.81;4988715;28;20363;-77
2023/06/24 08:12:23;;;;;;;;;;;;;;;22.50;55.90;102401.75;4988700;28;19956;-77
2023/06/24 08:14:49;;;;;;;;;;;;;;;22.54;56.13;102401.53;4983031;28;20466;-77
2023/06/24 08:17:14;;;;;;;;;;;;;;;22.61;54.52;102401.25;5006546;28;19929;-77
2023/06/24 08:19:39;;;;;;;;;;;;;;;22.69;55.17;102394.50;4988203;28;20055;-76
2023/06/24 08:22:05;;;;;;;;;;;;;;;22.77;53.79;102399.53;5004095;28;19933;-77
2023/06/24 08:24:31;;;;;;;;;;;;;;;22.87;52.16;102400.88;4988021;28;19957;-77
2023/06/24 08:26:56;;;;;;;;;;;;;;;22.94;53.26;102398.72;5005633;28;19921;-77
2023/06/24 08:29:21;;;;;;;;;;;;;;;23.04;53.73;102391.06;4987901;28;19925;-77
2023/06/24 08:31:47;;;;;;;;;;;;;;;23.11;52.52;102389.81;4987917;28;19925;-79
2023/06/24 08:34:12;;;;;;;;;;;;;;;23.17;52.42;102393.09;4972046;28;19932;-77
2023/06/24 08:36:38;;;;;;;;;;;;;;;23.27;48.68;102387.19;5006137;28;20055;-77
2023/06/24 08:39:03;;;;;;;;;;;;;;;23.34;50.23;102391.34;4986928;28;19925;-77
2023/06/24 08:41:28;;;;;;;;;;;;;;;23.42;50.48;102389.16;4958177;28;19928;-77
2023/06/24 08:43:54;;;;;;;;;;;;;;;23.56;52.14;102383.00;4987101;28;20008;-77
2023/06/24 08:46:23;;;;;;;;;;;;;;;23.67;51.92;102386.03;4987765;28;19981;-78
2023/06/24 08:48:53;;;;;;;;;;;;;;;23.76;50.50;102385.59;4988696;28;19922;-78
2023/06/24 08:51:23;;;;;;;;;;;;;;;23.79;47.67;102390.81;4984025;28;20062;-76
2023/06/24 08:53:48;;;;;;;;;;;;;;;23.79;47.15;102390.81;4987913;28;19976;-76
2023/06/24 08:56:14;;;;;;;;;;;;;;;23.81;49.55;102388.03;4996835;28;20268;-76
2023/06/24 08:58:40;;;;;;;;;;;;;;;23.96;49.36;102386.31;4992958;28;19922;-76
2023/06/24 09:01:06;;;;;;;;;;;;;;;24.12;49.59;102387.25;5011205;28;19925;-76
2023/06/24 09:03:31;;;;;;;;;;;;;;;24.24;47.88;102378.47;5009224;28;20365;-76
2023/06/24 09:05:57;;;;;;;;;;;;;;;24.36;46.71;102376.03;4965328;28;20372;-76
2023/06/24 09:08:22;;;;;;;;;;;;;;;24.50;47.49;102378.00;5008279;28;19922;-78
2023/06/24 09:10:56;;;;;;;;;;;;;;;24.53;46.23;102381.41;4987751;28;19930;-76
2023/06/24 09:13:27;;;;;;;;;;;;;;;24.64;47.34;102373.53;4989619;28;19964;-77
2023/06/24 09:15:52;;;;;;;;;;;;;;;24.83;48.07;102367.94;5010800;28;20000;-76
2023/06/24 09:18:17;;;;;;;;;;;;;;;25.00;45.75;102375.09;5011253;28;20465;-77
2023/06/24 09:20:45;;;;;;;;;;;;;;;25.17;47.34;102373.25;4976888;28;20233;-77
2023/06/24 09:23:11;;;;;;;;;;;;;;;25.28;45.48;102370.78;5011027;28;19926;-76
2023/06/24 09:25:36;;;;;;;;;;;;;;;25.38;46.84;102366.53;4997105;28;19968;-76
2023/06/24 09:28:02;;;;;;;;;;;;;;;25.46;47.06;102366.94;4993062;28;19971;-76
2023/06/24 09:30:27;;;;;;;;;;;;;;;25.59;47.48;102358.06;5010714;28;19925;-76
2023/06/24 09:32:56;;;;;;;;;;;;;;;25.72;47.04;102354.50;5010585;28;19932;-76
2023/06/24 09:35:22;;;;;;;;;;;;;;;25.82;44.56;102354.81;5011190;28;19976;-76
2023/06/24 09:37:59;;;;;;;;;;;;;;;25.77;45.82;102354.22;4996371;28;19918;-77
2023/06/24 09:40:24;;;;;;;;;;;;;;;25.81;44.01;102353.03;5010904;28;19957;-77
2023/06/24 09:42:53;;;;;;;;;;;;;;;25.75;42.01;102354.31;4994072;28;20383;-76
2023/06/24 09:45:23;;;;;;;;;;;;;;;25.79;42.46;102345.97;4993100;28;19929;-76
2023/06/24 09:47:49;;;;;;;;;;;;;;;25.86;42.75;102345.53;5010483;28;20004;-77
2023/06/24 09:50:14;;;;;;;;;;;;;;;25.95;40.52;102344.94;5010512;28;20004;-77
2023/06/24 09:52:40;;;;;;;;;;;;;;;25.91;39.59;102345.22;4994319;28;19921;-77
2023/06/24 09:55:06;;;;;;;;;;;;;;;26.02;39.90;102342.72;5010228;28;19972;-77
2023/06/24 09:57:35;;;;;;;;;;;;;;;26.15;41.09;102345.53;5008423;28;19925;-76
2023/06/24 10:00:01;;;;;;;;;;;;;;;26.31;42.54;102339.97;5009909;28;20339;-76
2023/06/24 10:02:29;;;;;;;;;;;;;;;26.42;38.74;102333.84;4975969;28;20218;-76
2023/06/24 10:04:55;;;;;;;;;;;;;;;26.42;42.22;102339.28;5010154;28;19925;-76
2023/06/24 10:07:20;;;;;;;;;;;;;;;26.43;40.33;102335.59;4992370;28;19970;-76
2023/06/24 10:09:45;;;;;;;;;;;;;;;26.48;40.67;102336.16;5010220;28;19917;-79
2023/06/24 10:12:11;;;;;;;;;;;;;;;26.54;40.26;102338.50;4993255;28;20392;-80
2023/06/24 10:14:36;;;;;;;;;;;;;;;26.53;41.54;102340.38;5010114;28;20398;-79
2023/06/24 10:17:03;;;;;;;;;;;;;;;26.51;41.45;102336.84;4992138;28;20321;-80
2023/06/24 10:19:28;;;;;;;;;;;;;;;26.59;41.20;102339.09;4992400;28;19932;-79
2023/06/24 10:22:00;;;;;;;;;;;;;;;26.73;41.38;102343.59;5010039;28;20288;-76
2023/06/24 10:24:31;;;;;;;;;;;;;;;26.82;38.20;102332.09;5013181;28;19925;-79
2023/06/24 10:27:01;;;;;;;;;;;;;;;26.96;39.04;102339.34;4991762;28;19922;-77
2023/06/24 10:29:33;;;;;;;;;;;;;;;27.03;39.21;102332.53;4995013;28;19921;-77
2023/06/24 10:32:02;;;;;;;;;;;;;;;27.13;39.97;102333.63;4995203;28;20474;-78
2023/06/24 10:34:39;;;;;;;;;;;;;;;27.31;38.85;102342.38;4987139;28;20004;-77
2023/06/24 10:37:09;;;;;;;;;;;;;;;27.45;38.56;102336.00;5000623;28;19918;-76
2023/06/24 10:39:38;;;;;;;;;;;;;;;27.65;40.30;102330.03;4995248;28;20373;-79
2023/06/24 10:42:22;;;;;;;;;;;;;;;27.88;41.04;102322.94;4964318;28;19945;-79
2023/06/24 10:44:48;;;;;;;;;;;;;;;27.99;39.60;102318.59;4994848;28;19922;-76
2023/06/24 10:47:13;;;;;;;;;;;;;;;28.04;39.59;102319.13;4990805;28;19925;-79
2023/06/24 10:49:38;;;;;;;;;;;;;;;28.14;40.75;102319.31;4994652;28;19933;-78
2023/06/24 10:52:04;;;;;;;;;;;;;;;28.25;40.94;102319.41;4982444;28;19942;-79
2023/06/24 10:54:29;;;;;;;;;;;;;;;28.40;39.08;102318.28;5007323;28;20272;-78
2023/06/24 10:56:55;;;;;;;;;;;;;;;28.46;39.83;102316.97;4992453;28;19991;-77
2023/06/24 10:59:23;;;;;;;;;;;;;;;28.50;40.60;102322.09;4967557;28;20408;-77
2023/06/24 11:01:55;;;;;;;;;;;;;;;28.60;38.03;102311.38;4994250;28;19922;-77
2023/06/24 11:04:20;;;;;;;;;;;;;;;28.60;37.05;102315.94;4994244;28;20442;-79
2023/06/24 11:07:02;;;;;;;;;;;;;;;28.49;38.59;102316.75;5006250;28;20000;-83
2023/06/24 11:09:27;;;;;;;;;;;;;;;28.56;38.31;102311.69;4978426;28;19925;-78
2023/06/24 11:11:53;;;;;;;;;;;;;;;28.52;38.00;102311.94;4983332;28;19925;-78
2023/06/24 11:14:21;;;;;;;;;;;;;;;28.68;38.54;102303.47;4994965;28;19929;-78
2023/06/24 11:16:46;;;;;;;;;;;;;;;28.82;38.54;102296.13;5003781;28;19924;-75
2023/06/24 11:19:11;;;;;;;;;;;;;;;28.96;39.84;102293.19;5006421;28;20336;-75
2023/06/24 11:21:37;;;;;;;;;;;;;;;29.12;36.39;102293.75;5003196;28;19917;-75
2023/06/24 11:24:03;;;;;;;;;;;;;;;29.07;38.90;102295.97;5012462;28;20264;-75
2023/06/24 11:26:28;;;;;;;;;;;;;;;29.10;33.90;102295.75;5011551;28;20351;-76
2023/06/24 11:28:54;;;;;;;;;;;;;;;29.00;36.68;102291.09;5012499;28;19977;-77
2023/06/24 11:31:23;;;;;;;;;;;;;;;28.94;36.06;102290.59;5008210;28;20019;-75
2023/06/24 11:33:49;;;;;;;;;;;;;;;29.02;36.91;102287.25;5007472;28;20021;-76
2023/06/24 11:36:18;;;;;;;;;;;;;;;29.18;38.28;102277.91;4993927;28;20008;-76
2023/06/24 11:38:45;;;;;;;;;;;;;;;29.55;39.28;102278.59;5012613;28;19918;-76
2023/06/24 11:41:11;;;;;;;;;;;;;;;29.90;34.15;102274.94;5009838;28;19918;-76
2023/06/24 11:43:36;;;;;;;;;;;;;;;29.87;36.95;102278.78;4994806;28;19948;-76
2023/06/24 11:46:01;;;;;;;;;;;;;;;30.09;38.24;102275.13;4991188;28;19922;-76
2023/06/24 11:48:30;;;;;;;;;;;;;;;30.32;38.02;102267.81;4991377;28;20672;-77
2023/06/24 11:50:58;;;;;;;;;;;;;;;30.63;37.61;102265.22;5012160;28;19952;-76
2023/06/24 11:53:31;;;;;;;;;;;;;;;30.88;35.30;102266.75;5008724;28;19925;-76
2023/06/24 11:55:56;;;;;;;;;;;;;;;30.89;37.08;102260.28;5009918;28;20013;-76
2023/06/24 11:58:22;;;;;;;;;;;;;;;30.78;34.63;102255.69;4991024;28;20020;-76
2023/06/24 12:00:48;;;;;;;;;;;;;;;30.36;31.87;102258.34;5012295;28;19966;-77
2023/06/24 12:03:14;;;;;;;;;;;;;;;30.01;33.77;102253.91;5009767;28;20627;-75
2023/06/24 12:05:44;;;;;;;;;;;;;;;30.14;36.11;102253.78;5012598;28;19921;-75
2023/06/24 12:08:11;;;;;;;;;;;;;;;30.12;33.71;102246.69;5008324;28;19917;-77
2023/06/24 12:10:37;;;;;;;;;;;;;;;30.13;35.05;102253.91;5011977;28;20253;-76
2023/06/24 12:13:03;;;;;;;;;;;;;;;30.37;34.79;102251.03;5011024;28;19924;-76
2023/06/24 12:15:29;;;;;;;;;;;;;;;30.68;34.58;102251.16;5009069;28;19914;-76
2023/06/24 12:17:55;;;;;;;;;;;;;;;30.76;31.78;102248.63;5005730;28;20384;-76
2023/06/24 12:20:20;;;;;;;;;;;;;;;30.73;33.74;102248.91;5012372;28;19917;-76
2023/06/24 12:22:47;;;;;;;;;;;;;;;30.62;34.83;102249.81;4994601;28;19928;-76
2023/06/24 12:25:12;;;;;;;;;;;;;;;30.68;34.49;102251.16;4994562;28;19994;-76
2023/06/24 12:27:39;;;;;;;;;;;;;;;30.77;34.71;102239.44;5012197;28;20417;-76
2023/06/24 12:30:05;;;;;;;;;;;;;;;30.97;34.67;102241.34;5012159;28;19918;-76
2023/06/24 12:32:30;;;;;;;;;;;;;;;31.01;33.41;102239.19;4977650;28;19925;-76